Time;durP1;ratioP1;P1;durP2;ratioP2;P2;SDS_P1;SDS_P2;PMS_P1;PMS_P2;Temp;Humidity;BMP_temperature;BMP_pressure;BME280_temperature;BME280_humidity;BME280_pressure;Samples;Min_cycle;Max_cycle;Signal;HPM_P1;HPM_P2
2022/11/29 00:00:57;;;;;;;5.18;1.10;;;;;;;2.90;86.70;94841.72;5072515;28;20257;-76
2022/11/29 00:03:24;;;;;;;0.77;0.77;;;;;;;2.85;86.93;94840.69;5072042;28;20264;-77
2022/11/29 00:05:52;;;;;;;1.10;1.00;;;;;;;2.82;86.96;94846.56;5072254;28;20561;-77
2022/11/29 00:08:19;;;;;;;0.65;0.65;;;;;;;2.82;86.96;94841.22;5071788;28;20280;-76
2022/11/29 00:10:46;;;;;;;0.93;0.90;;;;;;;2.97;86.48;94839.56;5071523;28;20207;-77
2022/11/29 00:13:12;;;;;;;0.40;0.40;;;;;;;2.85;87.01;94850.59;5071917;28;20252;-77
2022/11/29 00:15:40;;;;;;;0.40;0.40;;;;;;;2.82;86.65;94835.88;5071258;28;20231;-77
2022/11/29 00:18:07;;;;;;;1.02;0.82;;;;;;;2.81;86.42;94844.97;5070826;28;20256;-77
2022/11/29 00:20:35;;;;;;;1.88;0.80;;;;;;;2.77;86.62;94849.25;5071018;28;20207;-77
2022/11/29 00:23:03;;;;;;;0.63;0.63;;;;;;;2.87;86.55;94847.63;5064630;28;20200;-77
2022/11/29 00:25:29;;;;;;;0.30;0.30;;;;;;;2.83;86.11;94850.84;5051696;28;20641;-76
2022/11/29 00:27:56;;;;;;;2.55;1.30;;;;;;;2.80;86.44;94851.38;5065099;28;20719;-77
2022/11/29 00:30:23;;;;;;;0.75;0.75;;;;;;;2.92;86.49;94850.28;5051496;28;20226;-76
2022/11/29 00:32:50;;;;;;;1.55;1.00;;;;;;;2.87;86.34;94851.09;5064875;28;20239;-74
2022/11/29 00:35:16;;;;;;;0.32;0.32;;;;;;;2.89;86.21;94851.63;5051638;28;20215;-75
2022/11/29 00:37:43;;;;;;;0.93;0.85;;;;;;;2.77;86.35;94843.91;5051571;28;20257;-75
2022/11/29 00:40:12;;;;;;;1.15;0.80;;;;;;;2.80;86.02;94856.75;5052131;28;20203;-75
2022/11/29 00:42:39;;;;;;;1.30;0.75;;;;;;;2.77;85.84;94848.44;5051621;28;20203;-76
2022/11/29 00:45:07;;;;;;;1.75;1.25;;;;;;;2.75;86.23;94859.41;5051470;28;20227;-77
2022/11/29 00:47:33;;;;;;;0.55;0.55;;;;;;;2.82;86.56;94851.13;5051653;28;20555;-76
2022/11/29 00:50:00;;;;;;;0.50;0.50;;;;;;;2.79;86.54;94857.81;5051888;28;20200;-76
2022/11/29 00:52:27;;;;;;;0.40;0.40;;;;;;;2.85;86.57;94862.09;5070995;28;20206;-77
2022/11/29 00:54:53;;;;;;;1.35;0.90;;;;;;;2.83;86.59;94864.22;5071030;28;20289;-77
2022/11/29 00:57:22;;;;;;;0.70;0.70;;;;;;;2.93;86.62;94857.22;5069953;28;20533;-77
2022/11/29 00:59:48;;;;;;;2.47;1.00;;;;;;;2.82;86.61;94857.28;5069236;28;20211;-77
2022/11/29 01:02:15;;;;;;;0.80;0.63;;;;;;;2.79;87.02;94852.47;5051110;28;20203;-78
2022/11/29 01:04:42;;;;;;;0.70;0.70;;;;;;;2.81;86.73;94850.31;5064415;28;20203;-77
2022/11/29 01:07:09;;;;;;;0.88;0.80;;;;;;;2.76;86.73;94854.88;5051228;28;20204;-78
2022/11/29 01:09:35;;;;;;;0.30;0.30;;;;;;;2.76;86.32;94847.66;5051058;28;20208;-76
2022/11/29 01:12:02;;;;;;;1.10;1.00;;;;;;;2.76;85.93;94844.19;5050922;28;20659;-77
2022/11/29 01:14:30;;;;;;;0.40;0.40;;;;;;;2.84;85.63;94843.63;5052300;28;20227;-75
2022/11/29 01:16:57;;;;;;;0.65;0.60;;;;;;;2.79;85.83;94847.09;5071074;28;20203;-76
2022/11/29 01:19:24;;;;;;;0.40;0.40;;;;;;;2.80;85.93;94839.88;5070699;28;20207;-75
2022/11/29 01:21:50;;;;;;;0.68;0.68;;;;;;;2.80;85.90;94843.38;5070974;28;20203;-76
2022/11/29 01:24:17;;;;;;;0.95;0.85;;;;;;;2.78;85.75;94840.16;5054118;28;20204;-76
2022/11/29 01:26:44;;;;;;;1.50;0.95;;;;;;;2.72;85.70;94835.91;5050134;28;20651;-77
2022/11/29 01:29:12;;;;;;;0.88;0.70;;;;;;;2.60;85.75;94842.66;5050129;28;20203;-75
2022/11/29 01:31:41;;;;;;;1.10;0.75;;;;;;;2.63;86.09;94842.88;5050411;28;20209;-77
2022/11/29 01:34:07;;;;;;;0.90;0.55;;;;;;;2.63;86.04;94831.38;5050028;28;20277;-76
2022/11/29 01:36:35;;;;;;;1.02;0.93;;;;;;;2.61;85.88;94841.53;5050494;28;20238;-77
2022/11/29 01:39:04;;;;;;;0.40;0.40;;;;;;;2.64;86.02;94833.78;5050334;28;20265;-77
2022/11/29 01:41:33;;;;;;;1.00;0.88;;;;;;;2.65;86.18;94830.03;5050482;28;20208;-76
2022/11/29 01:44:02;;;;;;;0.30;0.30;;;;;;;2.63;86.42;94832.19;5054044;28;20231;-76
2022/11/29 01:46:31;;;;;;;1.23;0.50;;;;;;;2.64;86.14;94825.75;5059641;28;20880;-76
2022/11/29 01:49:03;;;;;;;0.73;0.55;;;;;;;2.66;85.88;94820.94;5049731;28;20670;-75
2022/11/29 01:51:31;;;;;;;0.85;0.82;;;;;;;2.70;86.02;94823.88;5063091;28;20658;-75
2022/11/29 01:53:58;;;;;;;0.57;0.57;;;;;;;2.64;85.92;94817.75;5070036;28;20753;-75
2022/11/29 01:56:25;;;;;;;1.35;1.23;;;;;;;2.65;86.17;94814.00;5069217;28;20288;-76
2022/11/29 01:58:52;;;;;;;0.35;0.32;;;;;;;2.70;86.05;94815.88;5069835;28;20203;-78
2022/11/29 02:01:19;;;;;;;0.55;0.55;;;;;;;2.68;86.09;94818.81;5070115;28;20207;-78
2022/11/29 02:03:46;;;;;;;1.05;0.93;;;;;;;2.68;86.19;94802.75;5070015;28;20606;-77
2022/11/29 02:06:15;;;;;;;0.68;0.68;;;;;;;2.68;85.83;94813.47;5069777;28;20206;-77
2022/11/29 02:08:43;;;;;;;0.88;0.82;;;;;;;2.66;86.38;94801.44;5069172;28;20627;-76
2022/11/29 02:11:36;;;;;;;1.20;0.80;;;;;;;2.61;85.69;94796.88;5069705;28;20203;-77
2022/11/29 02:14:21;;;;;;;2.85;1.65;;;;;;;2.69;85.73;94804.38;5069866;28;20207;-77
2022/11/29 02:16:57;;;;;;;0.35;0.35;;;;;;;2.58;86.10;94808.16;5069861;28;20226;-77
2022/11/29 02:19:53;;;;;;;0.50;0.50;;;;;;;2.61;86.41;94801.44;5069858;28;20286;-76
2022/11/29 02:22:29;;;;;;;0.40;0.40;;;;;;;2.61;85.99;94812.94;5069664;28;20199;-75
2022/11/29 02:25:16;;;;;;;0.20;0.20;;;;;;;2.65;85.99;94803.31;5049496;28;20207;-76
2022/11/29 02:28:24;;;;;;;1.00;0.57;;;;;;;2.62;85.71;94814.53;5065955;28;20255;-77
2022/11/29 02:31:08;;;;;;;0.40;0.40;;;;;;;2.64;86.10;94801.69;5065311;28;20661;-77
2022/11/29 02:34:08;;;;;;;0.65;0.65;;;;;;;2.67;85.91;94805.72;5069266;28;21059;-73
2022/11/29 02:37:03;;;;;;;2.40;0.80;;;;;;;2.65;85.79;94803.31;5066743;28;20282;-77
2022/11/29 02:40:02;;;;;;;0.55;0.55;;;;;;;2.69;85.57;94803.56;5067217;28;20248;-77
2022/11/29 02:42:50;;;;;;;0.93;0.70;;;;;;;2.72;85.41;94811.84;5057179;28;20206;-77
2022/11/29 02:45:43;;;;;;;0.32;0.32;;;;;;;2.72;86.01;94809.16;5069034;28;20313;-77
2022/11/29 02:48:42;;;;;;;0.55;0.55;;;;;;;2.63;85.84;94815.34;5069056;28;20264;-77
2022/11/29 02:51:13;;;;;;;0.30;0.30;;;;;;;2.70;86.12;94811.31;5048909;28;20612;-77
2022/11/29 02:53:51;;;;;;;0.47;0.43;;;;;;;2.69;85.72;94814.25;5049095;28;20356;-78
2022/11/29 02:56:27;;;;;;;0.38;0.38;;;;;;;2.68;86.15;94808.13;5049263;28;20277;-76
2022/11/29 02:59:01;;;;;;;1.25;0.43;;;;;;;2.73;86.03;94810.75;5048837;28;20739;-77
2022/11/29 03:01:34;;;;;;;0.60;0.60;;;;;;;2.74;85.90;94807.00;5061702;28;20247;-76
2022/11/29 03:04:11;;;;;;;0.30;0.30;;;;;;;2.74;85.93;94801.66;5048274;28;20199;-76
2022/11/29 03:06:45;;;;;;;0.55;0.55;;;;;;;2.78;85.93;94802.72;5048690;28;20203;-78
2022/11/29 03:09:21;;;;;;;0.50;0.50;;;;;;;2.75;86.16;94810.47;5049475;28;20269;-77
2022/11/29 03:11:55;;;;;;;0.68;0.68;;;;;;;2.74;86.19;94814.22;5049593;28;20586;-76
2022/11/29 03:14:25;;;;;;;0.88;0.43;;;;;;;2.77;86.21;94814.47;5050126;28;20199;-75
2022/11/29 03:17:04;;;;;;;0.73;0.73;;;;;;;2.84;86.10;94816.88;5060474;28;20714;-75
2022/11/29 03:19:47;;;;;;;0.38;0.38;;;;;;;2.83;86.16;94816.06;5062794;28;20203;-77
2022/11/29 03:22:24;;;;;;;0.98;0.73;;;;;;;2.79;86.53;94817.69;5052453;28;20203;-78
2022/11/29 03:25:01;;;;;;;1.15;0.93;;;;;;;2.77;86.66;94814.47;5052991;28;20225;-76
2022/11/29 03:27:36;;;;;;;1.10;0.93;;;;;;;2.72;87.01;94821.75;5052704;28;20206;-76
2022/11/29 03:30:06;;;;;;;0.40;0.40;;;;;;;2.72;87.12;94819.88;5052041;28;20260;-75
2022/11/29 03:32:44;;;;;;;0.50;0.50;;;;;;;2.70;87.05;94818.53;5064350;28;20245;-76
2022/11/29 03:35:17;;;;;;;0.85;0.55;;;;;;;2.66;87.51;94831.66;5064845;28;20222;-75
2022/11/29 03:37:52;;;;;;;1.30;1.20;;;;;;;2.69;87.31;94830.31;5052787;28;20256;-75
2022/11/29 03:40:24;;;;;;;0.50;0.50;;;;;;;2.68;87.08;94824.16;5052539;28;20252;-75
2022/11/29 03:42:56;;;;;;;0.50;0.50;;;;;;;2.70;87.31;94827.38;5052942;28;20254;-74
2022/11/29 03:45:27;;;;;;;0.65;0.50;;;;;;;2.70;87.33;94824.69;5052162;28;20231;-76
2022/11/29 03:48:01;;;;;;;0.25;0.25;;;;;;;2.70;87.64;94824.69;5062328;28;20232;-74
2022/11/29 03:50:35;;;;;;;0.65;0.63;;;;;;;2.68;87.78;94824.16;5057801;28;20211;-75
2022/11/29 03:53:12;;;;;;;1.52;1.10;;;;;;;2.68;88.07;94818.81;5071891;28;20236;-77
2022/11/29 03:55:53;;;;;;;1.77;1.50;;;;;;;2.71;88.03;94812.91;5072256;28;20236;-76
2022/11/29 03:58:48;;;;;;;0.45;0.45;;;;;;;2.70;88.39;94805.97;5072374;28;20199;-76
2022/11/29 04:01:55;;;;;;;1.17;0.80;;;;;;;2.69;88.37;94828.44;5065680;28;20203;-77
2022/11/29 04:05:02;;;;;;;0.63;0.60;;;;;;;2.72;88.51;94813.72;5063322;28;20214;-76
2022/11/29 04:08:00;;;;;;;1.75;0.57;;;;;;;2.76;88.57;94812.88;5060852;28;20203;-76
2022/11/29 04:10:48;;;;;;;0.93;0.93;;;;;;;2.77;88.64;94816.34;5059707;28;20815;-75
2022/11/29 04:13:56;;;;;;;0.50;0.50;;;;;;;2.77;88.80;94811.81;5071378;28;20203;-76
2022/11/29 04:17:02;;;;;;;1.10;0.43;;;;;;;2.76;89.06;94825.44;5071834;28;20231;-76
2022/11/29 04:19:59;;;;;;;2.33;0.90;;;;;;;2.75;89.22;94829.19;5069360;28;20612;-77
2022/11/29 04:22:43;;;;;;;1.30;1.05;;;;;;;2.94;91.33;94826.72;5051959;28;20219;-74
2022/11/29 04:25:48;;;;;;;1.48;1.15;;;;;;;4.15;100.00;94828.56;5051478;28;20265;-75
2022/11/29 04:28:41;;;;;;;0.75;0.63;;;;;;;3.84;92.95;94821.84;5029976;28;20685;-75
2022/11/29 04:31:22;;;;;;;5.05;0.98;;;;;;;3.57;88.89;94831.16;5050854;28;20211;-76
2022/11/29 04:34:19;;;;;;;0.95;0.77;;;;;;;3.05;88.57;94826.41;5051174;28;21044;-77
2022/11/29 04:37:06;;;;;;;1.23;1.13;;;;;;;2.89;88.95;94830.22;5051874;28;20226;-79
2022/11/29 04:39:57;;;;;;;1.85;0.70;;;;;;;2.83;89.13;94832.13;5059431;28;20187;-78
2022/11/29 04:42:49;;;;;;;1.48;0.80;;;;;;;2.83;89.03;94831.31;5053814;28;20207;-77
2022/11/29 04:45:43;;;;;;;0.40;0.40;;;;;;;2.90;89.15;94821.13;5051473;28;20585;-77
2022/11/29 04:48:23;;;;;;;0.50;0.50;;;;;;;2.93;89.05;94825.13;5049469;28;20616;-76
2022/11/29 04:50:59;;;;;;;0.80;0.38;;;;;;;2.99;89.14;94824.03;5056085;28;20199;-76
2022/11/29 04:53:38;;;;;;;0.50;0.50;;;;;;;3.01;89.08;94821.84;5051064;28;20207;-77
2022/11/29 04:56:15;;;;;;;0.52;0.43;;;;;;;2.97;89.14;94815.47;5056215;28;20265;-79
2022/11/29 04:58:46;;;;;;;0.70;0.63;;;;;;;2.96;89.35;94824.56;5051075;28;20207;-76
2022/11/29 05:01:23;;;;;;;1.17;0.60;;;;;;;2.94;89.54;94821.38;5050282;28;20203;-79
2022/11/29 05:03:57;;;;;;;0.50;0.50;;;;;;;2.95;89.96;94818.44;5056235;28;20225;-76
2022/11/29 05:06:32;;;;;;;1.13;0.90;;;;;;;3.01;89.97;94816.50;5055508;28;20295;-78
2022/11/29 05:09:07;;;;;;;1.38;0.55;;;;;;;2.97;89.87;94820.84;5050578;28;20240;-75
2022/11/29 05:11:54;;;;;;;0.55;0.55;;;;;;;2.95;90.23;94820.31;5055730;28;20187;-77
2022/11/29 05:14:34;;;;;;;1.92;0.70;;;;;;;3.00;90.47;94820.28;5056663;28;20571;-77
2022/11/29 05:17:19;;;;;;;1.83;0.50;;;;;;;3.02;90.54;94820.78;5050594;28;20563;-78
2022/11/29 05:20:18;;;;;;;2.85;0.63;;;;;;;2.98;90.29;94822.44;5064243;28;20200;-78
2022/11/29 05:23:02;;;;;;;0.73;0.40;;;;;;;2.90;90.42;94829.13;5043269;28;20618;-78
2022/11/29 05:25:39;;;;;;;1.67;0.95;;;;;;;2.90;89.99;94825.66;5050362;28;20585;-77
2022/11/29 05:28:12;;;;;;;1.48;0.82;;;;;;;2.88;89.90;94822.47;5050392;28;20265;-77
2022/11/29 05:31:08;;;;;;;0.57;0.57;;;;;;;2.89;89.57;94821.38;5052017;28;20561;-77
2022/11/29 05:33:59;;;;;;;0.47;0.47;;;;;;;2.91;89.52;94827.25;5056900;28;20243;-74
2022/11/29 05:36:38;;;;;;;0.68;0.60;;;;;;;2.79;88.95;94819.56;5054007;28;20721;-79
2022/11/29 05:39:30;;;;;;;0.85;0.80;;;;;;;2.79;88.58;94833.75;5056672;28;20292;-78
2022/11/29 05:42:12;;;;;;;0.73;0.73;;;;;;;2.82;88.27;94835.06;5059207;28;20241;-76
2022/11/29 05:44:45;;;;;;;1.75;1.23;;;;;;;2.82;88.14;94833.19;5058964;28;20245;-76
2022/11/29 05:47:18;;;;;;;0.45;0.45;;;;;;;2.87;88.08;94839.63;5057351;28;20815;-75
2022/11/29 05:49:55;;;;;;;2.22;0.88;;;;;;;2.81;88.05;94842.28;5061634;28;20242;-77
2022/11/29 05:52:24;;;;;;;0.73;0.60;;;;;;;2.83;87.85;94826.78;5059311;28;20184;-78
2022/11/29 05:55:09;;;;;;;3.03;1.02;;;;;;;2.88;87.18;94833.16;5057951;28;20200;-76
2022/11/29 05:57:43;;;;;;;0.55;0.55;;;;;;;2.80;86.74;94837.22;5059496;28;20215;-78
2022/11/29 06:00:13;;;;;;;0.52;0.52;;;;;;;2.83;86.49;94820.63;5061344;28;20194;-77
2022/11/29 06:02:51;;;;;;;1.77;1.00;;;;;;;2.98;86.56;94838.50;5058675;28;20203;-77
2022/11/29 06:05:24;;;;;;;1.30;1.15;;;;;;;2.95;86.02;94833.69;5058123;28;20195;-78
2022/11/29 06:07:58;;;;;;;0.52;0.50;;;;;;;2.93;85.68;94838.50;5065093;28;20547;-77
2022/11/29 06:10:31;;;;;;;1.48;0.88;;;;;;;3.05;85.86;94834.41;5050052;28;20215;-77
2022/11/29 06:13:10;;;;;;;1.02;0.60;;;;;;;3.12;85.27;94828.78;5063656;28;20191;-77
2022/11/29 06:15:56;;;;;;;0.95;0.95;;;;;;;3.10;84.81;94826.38;5049941;28;20210;-78
2022/11/29 06:18:41;;;;;;;0.60;0.60;;;;;;;3.13;84.41;94831.19;5050130;28;20300;-77
2022/11/29 06:21:21;;;;;;;0.30;0.30;;;;;;;3.16;84.41;94835.16;5052963;28;20187;-78
2022/11/29 06:24:04;;;;;;;2.75;0.65;;;;;;;3.14;84.36;94837.34;5069168;28;20194;-79
2022/11/29 06:26:58;;;;;;;0.52;0.40;;;;;;;3.18;84.58;94839.16;5056783;28;20233;-78
2022/11/29 06:29:32;;;;;;;0.60;0.57;;;;;;;3.20;84.57;94830.88;5061813;28;20195;-80
2022/11/29 06:32:09;;;;;;;0.47;0.47;;;;;;;3.31;84.27;94832.41;5058815;28;20270;-78
2022/11/29 06:34:46;;;;;;;1.23;0.82;;;;;;;3.44;83.82;94826.44;5057309;28;20231;-77
2022/11/29 06:37:16;;;;;;;0.80;0.60;;;;;;;3.57;83.60;94831.16;5057972;28;20652;-77
2022/11/29 06:39:44;;;;;;;0.85;0.82;;;;;;;3.51;83.40;94831.50;5053941;28;20195;-76
2022/11/29 06:42:12;;;;;;;1.50;0.80;;;;;;;3.34;83.70;94826.50;5054608;28;20195;-78
2022/11/29 06:44:39;;;;;;;1.10;0.70;;;;;;;3.29;84.36;94828.41;5053253;28;20756;-79
2022/11/29 06:47:09;;;;;;;0.60;0.60;;;;;;;3.25;84.14;94827.38;5054769;28;20741;-79
2022/11/29 06:49:42;;;;;;;0.85;0.82;;;;;;;3.22;84.81;94828.72;5048938;28;20208;-77
2022/11/29 06:52:21;;;;;;;2.65;1.13;;;;;;;3.12;85.09;94834.94;5066504;28;20226;-77
2022/11/29 06:55:10;;;;;;;0.82;0.60;;;;;;;3.13;85.39;94843.78;5066973;28;20190;-83
2022/11/29 06:57:50;;;;;;;2.05;0.90;;;;;;;3.08;85.78;94849.94;5058672;28;20211;-80
2022/11/29 07:00:20;;;;;;;0.95;0.90;;;;;;;3.11;86.13;94843.25;5048582;28;20725;-79
2022/11/29 07:03:02;;;;;;;1.13;1.05;;;;;;;3.15;86.04;94828.22;5048890;28;20740;-81
2022/11/29 07:05:30;;;;;;;0.60;0.60;;;;;;;3.26;86.00;94840.50;5049675;28;20203;-78
2022/11/29 07:08:00;;;;;;;4.47;1.10;;;;;;;3.37;85.00;94842.03;5056308;28;20195;-79
2022/11/29 07:10:30;;;;;;;2.30;0.98;;;;;;;3.46;84.57;94845.72;5053662;28;20192;-78
2022/11/29 07:12:59;;;;;;;0.88;0.65;;;;;;;3.54;84.85;94842.47;5058421;28;20207;-79
2022/11/29 07:15:27;;;;;;;0.65;0.55;;;;;;;3.67;84.20;94845.59;5056565;28;20253;-77
2022/11/29 07:18:17;;;;;;;0.70;0.70;;;;;;;3.62;83.96;94854.44;5050238;28;20223;-79
2022/11/29 07:20:55;;;;;;;3.75;1.00;;;;;;;3.68;83.85;94845.31;5055217;28;20649;-79
2022/11/29 07:23:33;;;;;;;1.52;1.20;;;;;;;3.72;83.69;94856.25;5048851;28;20200;-79
2022/11/29 07:26:15;;;;;;;2.08;1.13;;;;;;;3.66;83.67;94854.69;5048682;28;20200;-78
2022/11/29 07:28:54;;;;;;;0.93;0.82;;;;;;;3.78;83.56;94857.81;5060364;28;20195;-77
2022/11/29 07:31:34;;;;;;;2.22;1.50;;;;;;;3.90;83.21;94851.03;5048710;28;20360;-78
2022/11/29 07:34:12;;;;;;;5.35;2.13;;;;;;;4.13;82.61;94848.69;5050690;28;20305;-77
2022/11/29 07:36:49;;;;;;;2.88;2.00;;;;;;;3.98;82.25;94854.97;5058336;28;20215;-77
2022/11/29 07:39:25;;;;;;;1.15;0.82;;;;;;;4.09;81.75;94850.34;5048539;28;20199;-80
2022/11/29 07:42:02;;;;;;;2.38;0.98;;;;;;;3.97;82.63;94845.34;5048394;28;20226;-79
2022/11/29 07:44:36;;;;;;;0.70;0.70;;;;;;;3.93;81.92;94844.31;5053556;28;20520;-78
2022/11/29 07:47:02;;;;;;;1.45;0.95;;;;;;;3.99;82.09;94843.19;5048405;28;20253;-78
2022/11/29 07:49:29;;;;;;;0.65;0.50;;;;;;;4.01;81.76;94849.06;5054616;28;20199;-78
2022/11/29 07:51:56;;;;;;;0.80;0.60;;;;;;;3.94;81.59;94853.97;5050928;28;20290;-78
2022/11/29 07:54:24;;;;;;;0.50;0.50;;;;;;;4.05;81.63;94842.06;5047349;28;20204;-75
2022/11/29 07:56:51;;;;;;;0.73;0.73;;;;;;;3.98;81.60;94852.28;5047905;28;20231;-76
2022/11/29 07:59:19;;;;;;;1.30;0.98;;;;;;;3.96;81.79;94849.13;5057958;28;20195;-79
2022/11/29 08:01:48;;;;;;;1.60;0.52;;;;;;;4.00;81.67;94844.78;5059715;28;20616;-78
2022/11/29 08:04:14;;;;;;;1.67;0.95;;;;;;;3.81;81.96;94843.88;5048860;28;20706;-79
2022/11/29 08:06:41;;;;;;;1.25;0.70;;;;;;;3.90;82.34;94844.88;5049624;28;20211;-80
2022/11/29 08:09:08;;;;;;;1.40;1.30;;;;;;;3.94;82.31;94856.63;5051272;28;20250;-77
2022/11/29 08:11:35;;;;;;;0.80;0.60;;;;;;;3.77;82.59;94857.03;5051600;28;20207;-78
2022/11/29 08:14:04;;;;;;;7.13;4.88;;;;;;;3.79;83.05;94875.50;5051960;28;20208;-78
2022/11/29 08:16:30;;;;;;;0.55;0.50;;;;;;;3.89;82.80;94854.78;5051167;28;20220;-75
2022/11/29 08:18:59;;;;;;;0.63;0.63;;;;;;;3.93;82.70;94849.69;5052048;28;20203;-75
2022/11/29 08:21:25;;;;;;;1.10;0.95;;;;;;;3.97;82.75;94850.69;5051470;28;20549;-78
2022/11/29 08:23:52;;;;;;;0.43;0.40;;;;;;;3.95;82.91;94852.06;5051968;28;20211;-77
2022/11/29 08:26:20;;;;;;;0.40;0.40;;;;;;;3.98;83.04;94844.25;5050723;28;20281;-79
2022/11/29 08:28:51;;;;;;;1.77;0.82;;;;;;;3.92;83.00;94858.78;5049767;28;20207;-79
2022/11/29 08:31:19;;;;;;;0.35;0.35;;;;;;;3.98;83.12;94851.50;5051137;28;20290;-79
2022/11/29 08:33:46;;;;;;;0.60;0.57;;;;;;;4.09;82.68;94848.47;5051446;28;20281;-78
2022/11/29 08:36:16;;;;;;;1.75;1.05;;;;;;;4.26;82.73;94851.50;5051594;28;20269;-78
2022/11/29 08:38:43;;;;;;;0.30;0.30;;;;;;;4.44;81.73;94855.38;5051128;28;20204;-79
2022/11/29 08:41:12;;;;;;;0.40;0.40;;;;;;;4.47;81.62;94859.38;5050741;28;20245;-78
2022/11/29 08:43:39;;;;;;;0.45;0.45;;;;;;;4.46;81.58;94852.41;5057125;28;20223;-76
2022/11/29 08:46:06;;;;;;;0.40;0.40;;;;;;;4.47;81.72;94854.03;5050959;28;20208;-76
2022/11/29 08:48:32;;;;;;;2.35;1.05;;;;;;;4.51;81.49;94858.50;5050381;28;20212;-76
2022/11/29 08:50:59;;;;;;;0.70;0.70;;;;;;;4.54;80.99;94866.00;5059633;28;20203;-77
2022/11/29 08:53:42;;;;;;;0.50;0.50;;;;;;;4.31;81.70;94863.28;5070081;28;20829;-78
2022/11/29 08:56:10;;;;;;;0.80;0.73;;;;;;;4.13;82.40;94862.91;5057312;28;20198;-77
2022/11/29 08:58:37;;;;;;;0.32;0.32;;;;;;;4.22;82.55;94853.19;5052404;28;20280;-77
2022/11/29 09:01:04;;;;;;;0.43;0.30;;;;;;;4.22;82.71;94847.81;5048390;28;20242;-76
2022/11/29 09:06:17;;;;;;;0.52;0.52;;;;;;;4.34;83.07;94846.63;5062019;28;20202;-76
2022/11/29 09:08:45;;;;;;;1.05;0.82;;;;;;;4.30;83.20;94851.75;5048686;28;20639;-77
2022/11/29 09:11:15;;;;;;;1.75;1.60;;;;;;;4.53;82.44;94847.50;5048513;28;20238;-76
2022/11/29 09:13:44;;;;;;;2.92;1.63;;;;;;;4.57;82.15;94848.53;5049383;28;20200;-77
2022/11/29 09:16:13;;;;;;;0.85;0.77;;;;;;;4.64;82.11;94840.97;5048869;28;20214;-77
2022/11/29 09:18:41;;;;;;;0.93;0.88;;;;;;;4.68;82.28;94843.88;5048271;28;20238;-77
2022/11/29 09:21:09;;;;;;;0.85;0.77;;;;;;;4.86;81.51;94841.25;5062270;28;20532;-79
2022/11/29 09:23:36;;;;;;;1.42;0.88;;;;;;;4.82;81.49;94837.53;5049339;28;20203;-79
2022/11/29 09:26:05;;;;;;;0.85;0.50;;;;;;;4.76;81.42;94835.22;5064933;28;20256;-79
2022/11/29 09:28:33;;;;;;;2.10;0.70;;;;;;;4.64;81.39;94839.09;5069121;28;20624;-81
2022/11/29 09:31:05;;;;;;;1.80;1.15;;;;;;;4.64;81.76;94832.94;5069026;28;20203;-79
2022/11/29 09:33:32;;;;;;;2.33;1.08;;;;;;;4.46;82.10;94839.81;5068910;28;20325;-78
2022/11/29 09:35:59;;;;;;;1.35;0.75;;;;;;;4.44;82.77;94825.06;5069215;28;20211;-80
2022/11/29 09:38:26;;;;;;;0.98;0.88;;;;;;;4.22;83.16;94823.69;5069197;28;20294;-77
2022/11/29 09:40:55;;;;;;;10.90;1.15;;;;;;;4.40;83.90;94813.31;5051250;28;20233;-77
2022/11/29 09:43:33;;;;;;;0.82;0.82;;;;;;;4.68;82.69;94807.09;5052944;28;20211;-76
2022/11/29 09:46:06;;;;;;;1.13;0.60;;;;;;;4.61;82.45;94809.34;5055672;28;20696;-76
2022/11/29 09:49:03;;;;;;;1.05;0.60;;;;;;;4.58;82.65;94813.38;5055895;28;20203;-79
2022/11/29 09:51:37;;;;;;;0.88;0.75;;;;;;;4.69;82.57;94811.38;5046182;28;20215;-79
2022/11/29 09:54:22;;;;;;;2.55;0.90;;;;;;;4.71;82.61;94811.91;5049086;28;20206;-76
2022/11/29 09:56:52;;;;;;;0.55;0.55;;;;;;;4.69;82.97;94800.66;5048471;28;20207;-79
2022/11/29 09:59:24;;;;;;;0.70;0.70;;;;;;;4.85;82.33;94796.72;5058856;28;20206;-78
2022/11/29 10:01:58;;;;;;;1.08;0.77;;;;;;;4.83;81.83;94798.88;5050066;28;20243;-78
2022/11/29 10:04:29;;;;;;;0.50;0.50;;;;;;;4.91;82.38;94795.56;5048347;28;20653;-77
2022/11/29 10:07:02;;;;;;;1.75;1.52;;;;;;;4.87;82.54;94791.84;5048627;28;20207;-74
2022/11/29 10:09:37;;;;;;;1.05;1.00;;;;;;;4.86;82.01;94801.00;5048027;28;20207;-76
2022/11/29 10:12:12;;;;;;;0.90;0.88;;;;;;;4.87;82.36;94793.75;5047641;28;20727;-75
2022/11/29 10:14:47;;;;;;;1.42;1.25;;;;;;;4.75;82.91;94786.09;5051872;28;20230;-81
2022/11/29 10:17:26;;;;;;;7.15;0.82;;;;;;;4.75;83.10;94785.31;5057275;28;20241;-79
2022/11/29 10:19:59;;;;;;;2.15;1.15;;;;;;;4.79;82.71;94781.75;5053938;28;20203;-80
2022/11/29 10:22:35;;;;;;;0.70;0.70;;;;;;;4.98;82.65;94776.41;5054463;28;20265;-77
2022/11/29 10:25:03;;;;;;;0.77;0.77;;;;;;;5.15;82.04;94770.56;5048117;28;20300;-82
2022/11/29 10:27:30;;;;;;;1.85;1.30;;;;;;;5.08;82.16;94762.06;5050311;28;20199;-78
2022/11/29 10:30:01;;;;;;;1.75;1.40;;;;;;;5.27;81.69;94776.28;5059247;28;20208;-80
2022/11/29 10:32:31;;;;;;;1.05;0.52;;;;;;;5.37;81.39;94776.13;5048216;28;20227;-80
2022/11/29 10:34:59;;;;;;;1.27;0.90;;;;;;;5.33;81.31;94772.44;5008415;28;20582;-80
2022/11/29 10:37:31;;;;;;;0.70;0.70;;;;;;;5.30;81.68;94771.16;5025349;28;20235;-79
2022/11/29 10:40:03;;;;;;;1.45;0.77;;;;;;;5.15;82.17;94762.50;5028016;28;20231;-77
2022/11/29 10:42:48;;;;;;;1.58;0.70;;;;;;;5.23;82.15;94759.16;5027944;28;20579;-79
2022/11/29 10:45:25;;;;;;;2.95;1.48;;;;;;;5.20;82.30;94767.78;5013066;28;20316;-79
2022/11/29 10:47:53;;;;;;;2.88;1.27;;;;;;;5.21;82.07;94766.69;5017786;28;20614;-80
2022/11/29 10:50:23;;;;;;;2.70;1.23;;;;;;;4.88;82.96;94774.69;5014586;28;20517;-77
2022/11/29 10:52:50;;;;;;;2.80;1.80;;;;;;;5.03;83.17;94764.81;5027921;28;20590;-76
2022/11/29 10:55:18;;;;;;;0.40;0.40;;;;;;;5.14;82.31;94767.06;5027469;28;20220;-78
2022/11/29 10:58:11;;;;;;;1.05;0.95;;;;;;;4.95;83.24;94769.72;5027618;28;20236;-76
2022/11/29 11:00:53;;;;;;;6.03;1.95;;;;;;;4.83;83.83;94766.69;5027421;28;20613;-78
2022/11/29 11:03:31;;;;;;;1.10;1.00;;;;;;;4.94;83.48;94768.13;5027641;28;20231;-78
2022/11/29 11:06:05;;;;;;;1.55;1.17;;;;;;;5.08;84.06;94757.47;5028367;28;20254;-81
2022/11/29 11:08:33;;;;;;;8.68;1.45;;;;;;;5.13;83.94;94748.56;5033811;28;20210;-77
2022/11/29 11:11:01;;;;;;;2.05;1.52;;;;;;;4.98;85.01;94752.25;5021043;28;20208;-78
2022/11/29 11:13:30;;;;;;;3.25;1.38;;;;;;;5.08;85.22;94754.00;5007811;28;20201;-80
2022/11/29 11:16:08;;;;;;;6.95;1.70;;;;;;;5.09;85.42;94747.53;5021382;28;20645;-79
2022/11/29 11:18:36;;;;;;;2.95;1.40;;;;;;;5.18;85.51;94767.31;5027581;28;20220;-81
2022/11/29 11:21:04;;;;;;;3.72;2.45;;;;;;;5.02;85.85;94763.22;5028313;28;20208;-77
2022/11/29 11:23:33;;;;;;;1.45;1.05;;;;;;;5.07;86.17;94765.81;5018446;28;20259;-77
2022/11/29 11:26:03;;;;;;;3.80;2.10;;;;;;;5.11;86.12;94766.84;5007380;28;20217;-78
2022/11/29 11:28:34;;;;;;;0.75;0.75;;;;;;;4.98;86.39;94758.44;5007112;28;20213;-78
2022/11/29 11:31:07;;;;;;;1.38;1.20;;;;;;;4.84;86.76;94779.00;5029366;28;20609;-77
2022/11/29 11:33:37;;;;;;;1.70;1.02;;;;;;;4.90;86.91;94777.88;5040630;28;20238;-79
2022/11/29 11:36:07;;;;;;;14.20;1.35;;;;;;;4.73;87.70;94782.91;5046466;28;20203;-76
2022/11/29 11:38:35;;;;;;;1.55;1.45;;;;;;;4.90;87.32;94772.50;5047448;28;20245;-78
2022/11/29 11:41:15;;;;;;;0.73;0.73;;;;;;;5.06;86.74;94769.63;5047342;28;20208;-78
2022/11/29 11:43:48;;;;;;;2.08;1.88;;;;;;;5.08;86.72;94783.53;5060763;28;20302;-81
2022/11/29 11:46:16;;;;;;;3.55;1.95;;;;;;;5.21;86.26;94764.81;5050492;28;20277;-78
2022/11/29 11:48:43;;;;;;;0.60;0.60;;;;;;;5.29;85.42;94784.88;5050079;28;20199;-76
2022/11/29 11:51:21;;;;;;;1.10;0.98;;;;;;;5.23;85.63;94772.59;5056351;28;20269;-76
2022/11/29 11:53:51;;;;;;;2.65;1.27;;;;;;;5.20;85.53;94775.84;5063323;28;20199;-75
2022/11/29 11:56:18;;;;;;;1.40;1.25;;;;;;;5.32;85.49;94784.28;5049670;28;20548;-76
2022/11/29 11:58:49;;;;;;;4.10;1.80;;;;;;;5.45;85.15;94780.88;5050181;28;20318;-77
2022/11/29 12:01:25;;;;;;;2.20;0.85;;;;;;;5.51;84.49;94778.91;5047353;28;20257;-75
2022/11/29 12:04:00;;;;;;;1.52;1.15;;;;;;;5.57;83.96;94781.22;5050403;28;20235;-75
2022/11/29 12:06:31;;;;;;;2.03;1.38;;;;;;;5.27;85.08;94782.47;5063474;28;20264;-76
2022/11/29 12:09:04;;;;;;;1.60;1.25;;;;;;;5.42;85.11;94773.38;5049591;28;20207;-76
2022/11/29 12:11:38;;;;;;;3.20;1.50;;;;;;;5.53;84.60;94769.47;5049966;28;20982;-76
2022/11/29 12:14:07;;;;;;;3.15;2.00;;;;;;;5.65;84.43;94775.19;5050154;28;20751;-77
2022/11/29 12:16:38;;;;;;;2.08;1.23;;;;;;;5.45;85.22;94774.69;5054928;28;20279;-77
2022/11/29 12:19:12;;;;;;;1.70;1.08;;;;;;;5.33;85.27;94769.75;5057228;28;20610;-76